createdAt,value
2022-08-03T00:01:18.942Z,99735.88
2022-08-03T00:02:52.253Z,99734.19
2022-08-03T00:04:33.915Z,99730.88
2022-08-03T00:06:06.372Z,99729.41
2022-08-03T00:07:39.131Z,99721.78
2022-08-03T00:09:11.367Z,99727.97
2022-08-03T00:10:43.499Z,99725.41
2022-08-03T00:12:15.763Z,99734.94
2022-08-03T00:13:48.328Z,99725.34
2022-08-03T00:15:20.864Z,99720.09
2022-08-03T00:16:52.900Z,99723.63
2022-08-03T00:18:25.300Z,99716.00
2022-08-03T00:19:57.418Z,99715.94
2022-08-03T00:21:29.897Z,99717.78
2022-08-03T00:23:02.011Z,99721.44
2022-08-03T00:24:36.467Z,99724.19
2022-08-03T00:26:08.773Z,99720.88
2022-08-03T00:27:40.824Z,99711.47
2022-08-03T00:29:13.125Z,99715.13
2022-08-03T00:30:45.155Z,99719.50
2022-08-03T00:32:17.387Z,99718.81
2022-08-03T00:33:58.800Z,99715.44
2022-08-03T00:35:50.334Z,99724.31
2022-08-03T00:37:23.295Z,99716.59
2022-08-03T00:39:13.150Z,99720.22
2022-08-03T00:40:45.266Z,99715.97
2022-08-03T00:42:17.517Z,99714.38
2022-08-03T00:43:49.689Z,99723.13
2022-08-03T00:45:23.871Z,99712.66
2022-08-03T00:46:55.932Z,99712.00
2022-08-03T00:48:33.531Z,99711.28
2022-08-03T00:50:07.250Z,99716.47
2022-08-03T00:51:41.775Z,99722.47
2022-08-03T00:53:14.680Z,99713.84
2022-08-03T00:54:46.781Z,99717.53
2022-08-03T00:56:18.988Z,99716.84
2022-08-03T00:57:51.676Z,99711.84
2022-08-03T00:59:23.744Z,99722.53
2022-08-03T01:00:55.901Z,99720.84
2022-08-03T01:02:29.435Z,99721.84
2022-08-03T01:04:01.491Z,99721.16
2022-08-03T01:05:45.837Z,99720.13
2022-08-03T01:07:29.246Z,99725.31
2022-08-03T01:09:26.943Z,99723.53
2022-08-03T01:12:00.855Z,99724.53
2022-08-03T01:14:01.559Z,99726.22
2022-08-03T01:16:00.267Z,99733.16
2022-08-03T01:17:54.305Z,99725.38
2022-08-03T01:19:45.252Z,99723.69
2022-08-03T01:21:24.220Z,99724.69
2022-08-03T01:23:15.132Z,99723.00
2022-08-03T01:25:02.321Z,99720.44
2022-08-03T01:26:53.051Z,99709.19
2022-08-03T01:29:12.523Z,99719.91
2022-08-03T01:30:46.505Z,99722.75
2022-08-03T01:33:17.225Z,99723.44
2022-08-03T01:34:56.137Z,99715.13
2022-08-03T01:36:36.156Z,99721.06
2022-08-03T01:38:12.288Z,99723.69
2022-08-03T01:39:45.744Z,99720.25
2022-08-03T01:41:23.348Z,99718.47
2022-08-03T01:42:57.037Z,99719.28
2022-08-03T01:44:31.366Z,99719.22
2022-08-03T01:46:04.771Z,99719.47
2022-08-03T01:47:36.578Z,99720.31
2022-08-03T01:49:11.434Z,99717.81
2022-08-03T01:50:45.615Z,99724.06
2022-08-03T01:52:19.515Z,99714.53
2022-08-03T01:53:52.513Z,99720.66
2022-08-03T01:55:27.670Z,99719.97
2022-08-03T01:57:00.037Z,99724.44
2022-08-03T01:58:32.771Z,99728.88
2022-08-03T02:00:06.396Z,99725.59
2022-08-03T02:02:27.530Z,99727.34
2022-08-03T02:03:32.601Z,99727.28
2022-08-03T02:05:05.398Z,99734.06
2022-08-03T02:07:00.696Z,99736.84
2022-08-03T02:08:35.224Z,99734.34
2022-08-03T02:10:08.139Z,99732.69
2022-08-03T02:11:40.899Z,99736.19
2022-08-03T02:13:14.760Z,99737.13
2022-08-03T02:14:47.561Z,99740.59
2022-08-03T02:16:20.135Z,99732.81
2022-08-03T02:17:52.352Z,99736.34
2022-08-03T02:19:25.510Z,99733.72
2022-08-03T02:20:57.956Z,99737.31
2022-08-03T02:22:30.853Z,99731.38
2022-08-03T02:24:04.725Z,99732.53
2022-08-03T02:25:42.262Z,99735.31
2022-08-03T02:27:43.612Z,99738.88
2022-08-03T02:29:20.783Z,99736.28
2022-08-03T02:31:16.479Z,99746.75
2022-08-03T02:32:59.218Z,99754.59
2022-08-03T02:34:34.547Z,99753.75
2022-08-03T02:36:07.335Z,99756.44
2022-08-03T02:37:52.394Z,99750.28
2022-08-03T02:39:25.666Z,99754.59
2022-08-03T02:40:58.954Z,99748.38
2022-08-03T02:42:32.973Z,99744.00
2022-08-03T02:44:09.316Z,99744.06
2022-08-03T02:45:46.315Z,99745.84
2022-08-03T02:47:21.340Z,99748.50
2022-08-03T02:48:55.153Z,99745.97
2022-08-03T02:50:27.917Z,99742.66
2022-08-03T02:52:00.541Z,99753.03
2022-08-03T02:53:34.052Z,99747.97
2022-08-03T02:55:07.588Z,99748.97
2022-08-03T02:56:40.233Z,99744.56
2022-08-03T02:58:14.199Z,99740.34
2022-08-03T02:59:46.635Z,99751.75
2022-08-03T03:01:21.521Z,99745.69
2022-08-03T03:02:53.963Z,99742.25
2022-08-03T03:04:32.188Z,99748.38
2022-08-03T03:06:05.889Z,99743.28
2022-08-03T03:07:51.930Z,99745.13
2022-08-03T03:09:26.132Z,99747.75
2022-08-03T03:11:14.679Z,99750.53
2022-08-03T03:12:47.472Z,99748.09
2022-08-03T03:14:33.609Z,99751.78
2022-08-03T03:16:06.961Z,99754.47
2022-08-03T03:17:39.686Z,99755.38
2022-08-03T03:19:13.343Z,99757.16
2022-08-03T03:20:46.334Z,99759.78
2022-08-03T03:22:19.125Z,99763.22
2022-08-03T03:23:51.595Z,99767.56
2022-08-03T03:25:24.949Z,99764.84
2022-08-03T03:26:59.897Z,99768.97
2022-08-03T03:28:32.570Z,99773.41
2022-08-03T03:30:05.079Z,99769.19
2022-08-03T03:31:38.247Z,99772.63
2022-08-03T03:33:10.338Z,99773.47
2022-08-03T03:34:43.035Z,99770.00
2022-08-03T03:36:16.498Z,99773.69
2022-08-03T03:37:48.682Z,99766.78
2022-08-03T03:39:20.759Z,99775.53
2022-08-03T03:40:53.008Z,99769.44
2022-08-03T03:42:25.859Z,99771.06
2022-08-03T03:43:58.356Z,99774.63
2022-08-03T03:45:31.837Z,99780.75
2022-08-03T03:47:03.693Z,99779.75
2022-08-03T03:48:35.841Z,99778.97
2022-08-03T03:50:08.664Z,99780.91
2022-08-03T03:51:40.745Z,99786.13
2022-08-03T03:53:15.909Z,99779.06
2022-08-03T03:54:48.256Z,99790.50
2022-08-03T03:56:20.362Z,99791.38
2022-08-03T03:57:52.406Z,99790.50
2022-08-03T03:59:24.421Z,99787.03
2022-08-03T04:00:56.618Z,99795.88
2022-08-03T04:02:28.818Z,99792.41
2022-08-03T04:04:20.863Z,99794.88
2022-08-03T04:06:11.324Z,99793.06
2022-08-03T04:08:22.262Z,99796.44
2022-08-03T04:10:14.735Z,99793.88
2022-08-03T04:11:52.902Z,99794.66
2022-08-03T04:13:25.868Z,99803.38
2022-08-03T04:14:59.627Z,99799.84
2022-08-03T04:16:34.339Z,99803.22
2022-08-03T04:18:07.955Z,99799.56
2022-08-03T04:19:46.695Z,99805.56
2022-08-03T04:21:20.303Z,99802.13
2022-08-03T04:22:53.849Z,99815.13
2022-08-03T04:24:29.629Z,99808.06
2022-08-03T04:26:03.981Z,99806.09
2022-08-03T04:27:38.430Z,99803.31
2022-08-03T04:29:11.844Z,99804.09
2022-08-03T04:30:48.117Z,99807.19
2022-08-03T04:32:21.566Z,99810.53
2022-08-03T04:33:54.260Z,99806.91
2022-08-03T04:35:58.495Z,99811.03
2022-08-03T04:37:39.082Z,99814.22
2022-08-03T04:39:19.150Z,99815.75
2022-08-03T04:40:52.431Z,99816.59
2022-08-03T04:42:25.269Z,99811.28
2022-08-03T04:43:59.118Z,99811.22
2022-08-03T04:45:32.035Z,99810.22
2022-08-03T04:47:04.257Z,99818.78
2022-08-03T04:48:36.395Z,99821.22
2022-08-03T04:50:12.945Z,99818.38
2022-08-03T04:51:46.866Z,99826.94
2022-08-03T04:53:19.569Z,99832.84
2022-08-03T04:54:53.200Z,99832.44
2022-08-03T04:56:25.445Z,99831.31
2022-08-03T04:57:58.515Z,99834.47
2022-08-03T04:59:30.637Z,99826.38
2022-08-03T05:01:03.668Z,99828.63
2022-08-03T05:02:35.770Z,99831.78
2022-08-03T05:04:08.130Z,99840.19
2022-08-03T05:05:50.587Z,99828.63
2022-08-03T05:07:24.870Z,99831.81
2022-08-03T05:08:58.111Z,99826.28
2022-08-03T05:10:30.350Z,99831.94
2022-08-03T05:12:02.765Z,99827.31
2022-08-03T05:13:34.864Z,99832.31
2022-08-03T05:15:07.872Z,99836.28
2022-08-03T05:16:39.908Z,99836.91
2022-08-03T05:18:14.265Z,99839.22
2022-08-03T05:19:46.596Z,99835.41
2022-08-03T05:21:18.714Z,99837.72
2022-08-03T05:22:50.776Z,99846.13
2022-08-03T05:24:22.933Z,99852.75
2022-08-03T05:25:55.058Z,99845.56
2022-08-03T05:27:27.251Z,99850.38
2022-08-03T05:28:59.302Z,99852.84
2022-08-03T05:30:34.089Z,99851.69
2022-08-03T05:32:08.435Z,99851.25
2022-08-03T05:33:41.424Z,99852.63
2022-08-03T05:36:03.609Z,99848.81
2022-08-03T05:37:05.853Z,99851.22
2022-08-03T05:38:37.998Z,99853.44
2022-08-03T05:40:10.670Z,99853.19
2022-08-03T05:41:42.817Z,99854.47
2022-08-03T05:43:14.959Z,99858.44
2022-08-03T05:44:47.008Z,99858.00
2022-08-03T05:46:19.117Z,99867.41
2022-08-03T05:47:51.738Z,99868.19
2022-08-03T05:49:23.883Z,99869.69
2022-08-03T05:50:56.030Z,99873.84
2022-08-03T05:52:28.488Z,99875.19
2022-08-03T05:54:00.831Z,99870.41
2022-08-03T05:55:32.922Z,99870.06
2022-08-03T05:57:05.149Z,99873.97
2022-08-03T05:58:37.283Z,99873.72
2022-08-03T06:00:11.651Z,99878.44
2022-08-03T06:01:44.857Z,99877.25
2022-08-03T06:03:17.352Z,99881.22
2022-08-03T06:04:53.631Z,99878.22
2022-08-03T06:06:29.306Z,99882.19
2022-08-03T06:08:04.405Z,99885.31
2022-08-03T06:10:33.386Z,99885.88
2022-08-03T06:11:28.517Z,99885.50
2022-08-03T06:13:01.029Z,99885.25
2022-08-03T06:14:33.216Z,99892.03
2022-08-03T06:16:06.197Z,99885.63
2022-08-03T06:17:45.957Z,99889.78
2022-08-03T06:19:18.367Z,99889.84
2022-08-03T06:20:51.249Z,99887.13
2022-08-03T06:22:24.462Z,99887.78
2022-08-03T06:23:59.309Z,99889.38
2022-08-03T06:25:34.845Z,99883.94
2022-08-03T06:27:07.048Z,99893.44
2022-08-03T06:28:52.759Z,99889.75
2022-08-03T06:30:26.329Z,99898.22
2022-08-03T06:31:58.679Z,99893.50
2022-08-03T06:34:30.932Z,99889.78
2022-08-03T06:35:23.488Z,99892.03
2022-08-03T06:37:01.684Z,99896.00
2022-08-03T06:38:34.277Z,99889.41
2022-08-03T06:40:07.157Z,99894.28
2022-08-03T06:41:44.704Z,99892.97
2022-08-03T06:43:17.330Z,99895.94
2022-08-03T06:44:49.613Z,99893.66
2022-08-03T06:46:22.606Z,99891.38
2022-08-03T06:48:01.206Z,99889.66
2022-08-03T06:49:33.356Z,99893.69
2022-08-03T06:51:06.822Z,99890.50
2022-08-03T06:52:39.348Z,99888.28
2022-08-03T06:54:12.672Z,99898.88
2022-08-03T06:55:44.738Z,99889.22
2022-08-03T06:57:19.130Z,99894.81
2022-08-03T06:58:51.992Z,99888.81
2022-08-03T07:00:24.248Z,99886.28
2022-08-03T07:01:59.608Z,99889.06
2022-08-03T07:03:31.886Z,99877.97
2022-08-03T07:05:05.971Z,99879.03
2022-08-03T07:06:39.398Z,99881.16
2022-08-03T07:08:11.593Z,99887.81
2022-08-03T07:09:57.138Z,99887.06
2022-08-03T07:11:30.451Z,99887.13
2022-08-03T07:13:02.586Z,99884.78
2022-08-03T07:14:34.686Z,99882.34
2022-08-03T07:16:07.070Z,99882.53
2022-08-03T07:17:39.573Z,99874.69
2022-08-03T07:19:12.683Z,99878.56
2022-08-03T07:20:45.885Z,99878.00
2022-08-03T07:22:18.042Z,99880.19
2022-08-03T07:23:50.498Z,99877.47
2022-08-03T07:25:22.849Z,99881.56
2022-08-03T07:26:55.396Z,99882.06
2022-08-03T07:28:28.444Z,99878.94
2022-08-03T07:30:00.815Z,99886.22
2022-08-03T07:31:34.244Z,99891.75
2022-08-03T07:33:06.835Z,99884.63
2022-08-03T07:34:38.978Z,99889.59
2022-08-03T07:36:11.163Z,99888.78
2022-08-03T07:37:43.335Z,99883.63
2022-08-03T07:39:26.714Z,99896.75
2022-08-03T07:40:58.910Z,99891.69
2022-08-03T07:42:31.810Z,99890.06
2022-08-03T07:44:04.292Z,99889.72
2022-08-03T07:45:36.649Z,99891.88
2022-08-03T07:47:09.084Z,99899.34
2022-08-03T07:48:42.169Z,99892.00
2022-08-03T07:50:18.854Z,99892.72
2022-08-03T07:52:11.368Z,99896.94
2022-08-03T07:53:47.419Z,99889.44
2022-08-03T07:55:22.052Z,99897.63
2022-08-03T07:56:54.297Z,99890.28
2022-08-03T07:58:26.739Z,99895.19
2022-08-03T08:00:02.392Z,99892.16
2022-08-03T08:01:37.100Z,99890.94
2022-08-03T08:03:09.492Z,99894.13
2022-08-03T08:04:42.649Z,99895.28
2022-08-03T08:06:15.166Z,99905.16
2022-08-03T08:07:50.910Z,99901.28
2022-08-03T08:09:23.971Z,99896.19
2022-08-03T08:10:58.238Z,99905.22
2022-08-03T08:12:32.197Z,99904.31
2022-08-03T08:14:05.932Z,99901.59
2022-08-03T08:15:42.778Z,99903.63
2022-08-03T08:17:17.171Z,99906.50
2022-08-03T08:18:49.413Z,99905.00
2022-08-03T08:20:30.489Z,99906.78
2022-08-03T08:22:03.967Z,99913.22
2022-08-03T08:23:43.544Z,99906.56
2022-08-03T08:25:19.449Z,99902.50
2022-08-03T08:26:51.888Z,99905.50
2022-08-03T08:28:32.843Z,99898.81
2022-08-03T08:30:11.544Z,99900.09
2022-08-03T08:31:44.851Z,99894.16
2022-08-03T08:33:23.380Z,99893.34
2022-08-03T08:34:57.369Z,99897.88
2022-08-03T08:36:29.415Z,99884.28
2022-08-03T08:38:05.603Z,99900.81
2022-08-03T08:39:38.216Z,99897.63
2022-08-03T08:41:12.124Z,99898.50
2022-08-03T08:42:57.879Z,99892.31
2022-08-03T08:44:30.767Z,99895.41
2022-08-03T08:46:03.649Z,99902.72
2022-08-03T08:47:51.131Z,99900.78
2022-08-03T08:51:02.845Z,99896.75
2022-08-03T08:52:36.047Z,99892.16
2022-08-03T08:54:08.931Z,99892.41
2022-08-03T08:55:59.305Z,99897.03
2022-08-03T08:57:43.145Z,99891.84
2022-08-03T08:59:15.894Z,99895.09
2022-08-03T09:00:48.871Z,99885.00
2022-08-03T09:02:21.097Z,99890.88
2022-08-03T09:03:54.618Z,99888.19
2022-08-03T09:05:55.842Z,99891.31
2022-08-03T09:07:30.113Z,99889.34
2022-08-03T09:09:02.582Z,99883.59
2022-08-03T09:10:35.302Z,99885.69
2022-08-03T09:12:38.789Z,99878.41
2022-08-03T09:14:01.627Z,99877.28
2022-08-03T09:15:34.098Z,99876.44
2022-08-03T09:17:06.500Z,99869.00
2022-08-03T09:18:39.434Z,99873.88
2022-08-03T09:20:12.045Z,99869.13
2022-08-03T09:21:44.564Z,99879.63
2022-08-03T09:23:51.783Z,99871.47
2022-08-03T09:25:24.425Z,99859.44
2022-08-03T09:26:57.046Z,99868.09
2022-08-03T09:28:59.388Z,99869.88
2022-08-03T09:30:34.723Z,99862.16
2022-08-03T09:32:07.538Z,99860.03
2022-08-03T09:33:49.421Z,99857.09
2022-08-03T09:35:51.779Z,99860.44
2022-08-03T09:37:21.600Z,99860.13
2022-08-03T09:39:19.267Z,99859.75
2022-08-03T09:40:54.843Z,99863.25
2022-08-03T09:42:31.611Z,99856.91
2022-08-03T09:44:04.096Z,99862.78
2022-08-03T09:45:37.534Z,99857.00
2022-08-03T09:47:11.202Z,99861.91
2022-08-03T09:48:43.690Z,99858.25
2022-08-03T09:50:16.321Z,99858.63
2022-08-03T09:52:31.804Z,99860.34
2022-08-03T09:53:58.532Z,99850.03
2022-08-03T09:56:33.926Z,99848.06
2022-08-03T09:57:26.199Z,99851.84
2022-08-03T09:58:58.454Z,99848.47
2022-08-03T10:00:30.884Z,99852.91
2022-08-03T10:02:03.372Z,99843.16
2022-08-03T10:04:02.754Z,99842.28
2022-08-03T10:05:34.236Z,99838.41
2022-08-03T10:07:09.679Z,99838.47
2022-08-03T10:08:41.931Z,99842.53
2022-08-03T10:10:29.322Z,99826.88
2022-08-03T10:12:24.843Z,99834.94
2022-08-03T10:14:14.068Z,99832.88
2022-08-03T10:16:22.644Z,99828.59
2022-08-03T10:17:46.074Z,99825.03
2022-08-03T10:19:18.801Z,99821.88
2022-08-03T10:20:57.156Z,99816.63
2022-08-03T10:22:34.645Z,99812.63
2022-08-03T10:24:09.841Z,99818.31
2022-08-03T10:25:45.082Z,99818.13
2022-08-03T10:27:20.835Z,99807.34
2022-08-03T10:28:54.965Z,99816.25
2022-08-03T10:30:28.713Z,99821.97
2022-08-03T10:32:06.201Z,99812.59
2022-08-03T10:33:50.131Z,99812.94
2022-08-03T10:35:24.852Z,99808.13
2022-08-03T10:36:59.437Z,99804.00
2022-08-03T10:38:38.602Z,99801.66
2022-08-03T10:40:33.248Z,99804.03
2022-08-03T10:42:13.513Z,99795.03
2022-08-03T10:44:19.559Z,99799.44
2022-08-03T10:45:52.716Z,99801.63
2022-08-03T10:47:39.700Z,99795.94
2022-08-03T10:49:33.711Z,99795.97
2022-08-03T10:51:08.080Z,99789.28
2022-08-03T10:53:03.994Z,99789.13
2022-08-03T10:55:03.499Z,99791.47
2022-08-03T10:57:13.642Z,99791.47
2022-08-03T10:58:53.419Z,99775.94
2022-08-03T11:00:50.369Z,99778.63
2022-08-03T11:02:22.716Z,99776.78
2022-08-03T11:03:55.127Z,99774.94
2022-08-03T11:05:32.229Z,99776.63
2022-08-03T11:07:23.367Z,99775.84
2022-08-03T11:09:10.943Z,99781.50
2022-08-03T11:10:43.517Z,99774.50
2022-08-03T11:12:30.241Z,99777.00
2022-08-03T11:14:19.437Z,99768.13
2022-08-03T11:15:54.316Z,99768.97
2022-08-03T11:17:45.785Z,99770.31
2022-08-03T11:19:20.385Z,99759.16
2022-08-03T11:20:58.560Z,99764.69
2022-08-03T11:22:49.356Z,99759.34
2022-08-03T11:24:44.315Z,99761.84
2022-08-03T11:26:22.918Z,99750.16
2022-08-03T11:28:28.852Z,99747.66
2022-08-03T11:30:19.866Z,99738.13
2022-08-03T11:31:52.114Z,99741.47
2022-08-03T11:33:31.396Z,99739.94
2022-08-03T11:35:24.510Z,99739.09
2022-08-03T11:37:20.991Z,99733.91
2022-08-03T11:39:22.665Z,99729.56
2022-08-03T11:40:55.469Z,99726.38
2022-08-03T11:42:29.545Z,99723.03
2022-08-03T11:44:01.950Z,99722.03
2022-08-03T11:45:34.588Z,99721.38
2022-08-03T11:47:07.152Z,99725.91
2022-08-03T11:48:41.465Z,99719.03
2022-08-03T11:50:13.949Z,99722.22
2022-08-03T11:51:46.346Z,99718.72
2022-08-03T11:53:19.705Z,99714.84
2022-08-03T11:54:56.695Z,99718.03
2022-08-03T11:56:40.373Z,99712.03
2022-08-03T11:59:02.634Z,99703.31
2022-08-03T12:00:23.339Z,99716.34
2022-08-03T12:02:10.027Z,99717.00
2022-08-03T12:03:42.503Z,99712.81
2022-08-03T12:05:14.861Z,99705.13
2022-08-03T12:07:05.090Z,99700.94
2022-08-03T12:08:37.295Z,99692.41
2022-08-03T12:10:13.568Z,99692.56
2022-08-03T12:11:59.396Z,99691.56
2022-08-03T12:14:10.468Z,99691.56
2022-08-03T12:15:37.489Z,99691.19
2022-08-03T12:17:09.899Z,99691.34
2022-08-03T12:18:42.293Z,99684.66
2022-08-03T12:20:31.554Z,99690.84
2022-08-03T12:22:07.692Z,99683.16
2022-08-03T12:23:40.178Z,99676.47
2022-08-03T12:25:38.835Z,99675.47
2022-08-03T12:27:12.492Z,99677.19
2022-08-03T12:28:49.888Z,99686.06
2022-08-03T12:30:24.448Z,99679.50
2022-08-03T12:31:57.250Z,99681.16
2022-08-03T12:33:29.644Z,99673.47
2022-08-03T12:35:03.685Z,99684.69
2022-08-03T12:36:39.647Z,99671.25
2022-08-03T12:38:13.436Z,99668.50
2022-08-03T12:40:02.807Z,99677.69
2022-08-03T12:41:39.884Z,99668.63
2022-08-03T12:43:13.886Z,99668.09
2022-08-03T12:44:50.525Z,99670.91
2022-08-03T12:46:36.643Z,99669.84
2022-08-03T12:48:11.590Z,99666.81
2022-08-03T12:49:48.308Z,99665.09
2022-08-03T12:51:20.782Z,99666.75
2022-08-03T12:52:53.181Z,99661.03
2022-08-03T12:54:29.820Z,99657.31
2022-08-03T12:56:05.712Z,99658.72
2022-08-03T12:57:42.541Z,99659.97
2022-08-03T12:59:40.646Z,99650.91
2022-08-03T13:01:13.975Z,99656.69
2022-08-03T13:02:46.599Z,99650.22
2022-08-03T13:04:41.328Z,99657.16
2022-08-03T13:06:18.525Z,99662.91
2022-08-03T13:07:50.959Z,99661.97
2022-08-03T13:09:25.808Z,99658.75
2022-08-03T13:10:58.156Z,99666.66
2022-08-03T13:12:31.120Z,99661.63
2022-08-03T13:14:03.359Z,99657.13
2022-08-03T13:15:38.651Z,99657.44
2022-08-03T13:17:20.909Z,99658.78
2022-08-03T13:18:54.639Z,99658.09
2022-08-03T13:20:26.916Z,99656.78
2022-08-03T13:22:04.042Z,99658.81
2022-08-03T13:23:37.038Z,99650.47
2022-08-03T13:25:09.918Z,99657.47
2022-08-03T13:26:42.269Z,99654.66
2022-08-03T13:28:14.923Z,99664.16
2022-08-03T13:29:47.592Z,99656.31
2022-08-03T13:31:19.820Z,99661.31
2022-08-03T13:32:52.347Z,99672.50
2022-08-03T13:34:24.592Z,99664.16
2022-08-03T13:35:56.860Z,99660.31
2022-08-03T13:37:30.102Z,99657.63
2022-08-03T13:39:02.503Z,99650.59
2022-08-03T13:40:41.833Z,99654.78
2022-08-03T13:42:14.150Z,99652.44
2022-08-03T13:43:46.664Z,99648.94
2022-08-03T13:45:19.210Z,99651.75
2022-08-03T13:46:51.775Z,99656.28
2022-08-03T13:48:36.966Z,99650.75
2022-08-03T13:50:10.328Z,99644.91
2022-08-03T13:51:42.923Z,99645.44
2022-08-03T13:53:15.448Z,99634.91
2022-08-03T13:54:47.897Z,99635.41
2022-08-03T13:56:21.106Z,99635.06
2022-08-03T13:58:04.434Z,99635.38
2022-08-03T13:59:40.505Z,99629.81
2022-08-03T14:01:13.067Z,99635.69
2022-08-03T14:02:45.512Z,99634.28
2022-08-03T14:04:21.866Z,99639.44
2022-08-03T14:05:54.660Z,99640.97
2022-08-03T14:07:26.902Z,99635.63
2022-08-03T14:09:00.781Z,99630.97
2022-08-03T14:10:43.866Z,99635.19
2022-08-03T14:12:16.006Z,99633.00
2022-08-03T14:13:48.427Z,99627.19
2022-08-03T14:15:21.006Z,99628.84
2022-08-03T14:16:53.168Z,99621.66
2022-08-03T14:18:33.397Z,99628.13
2022-08-03T14:20:36.525Z,99634.81
2022-08-03T14:22:06.125Z,99633.28
2022-08-03T14:23:39.861Z,99626.22
2022-08-03T14:25:12.381Z,99630.78
2022-08-03T14:26:48.338Z,99629.13
2022-08-03T14:28:25.861Z,99630.66
2022-08-03T14:30:00.406Z,99630.50
2022-08-03T14:32:12.025Z,99631.03
2022-08-03T14:33:25.307Z,99630.38
2022-08-03T14:34:57.778Z,99628.34
2022-08-03T14:36:30.260Z,99629.97
2022-08-03T14:38:02.655Z,99625.97
2022-08-03T14:41:28.101Z,99625.66
2022-08-03T14:43:00.465Z,99628.81
2022-08-03T14:44:32.775Z,99630.34
2022-08-03T14:46:05.106Z,99627.47
2022-08-03T14:50:29.394Z,99634.16
2022-08-03T14:50:38.634Z,99624.31
2022-08-03T14:51:22.489Z,99629.31
2022-08-03T14:52:55.048Z,99628.78
2022-08-03T14:54:27.368Z,99627.78
2022-08-03T14:55:59.807Z,99618.06
2022-08-03T14:57:32.167Z,99616.75
2022-08-03T14:59:04.381Z,99620.97
2022-08-03T15:00:40.208Z,99624.47
2022-08-03T15:02:21.283Z,99614.59
2022-08-03T15:03:55.780Z,99624.25
2022-08-03T15:05:28.140Z,99627.97
2022-08-03T15:07:00.453Z,99614.41
2022-08-03T15:08:32.652Z,99616.88
2022-08-03T15:10:05.569Z,99616.88
2022-08-03T15:11:37.546Z,99617.38
2022-08-03T15:13:09.792Z,99614.41
2022-08-03T15:14:42.292Z,99614.19
2022-08-03T15:16:14.689Z,99622.91
2022-08-03T15:18:00.093Z,99616.72
2022-08-03T15:20:02.035Z,99616.88
2022-08-03T15:21:46.945Z,99614.72
2022-08-03T15:23:18.678Z,99607.22
2022-08-03T15:24:51.014Z,99611.25
2022-08-03T15:26:32.759Z,99607.88
2022-08-03T15:28:07.657Z,99608.56
2022-08-03T15:30:08.786Z,99613.22
2022-08-03T15:31:32.290Z,99609.91
2022-08-03T15:33:05.089Z,99607.25
2022-08-03T15:34:37.285Z,99605.94
2022-08-03T15:36:09.735Z,99608.78
2022-08-03T15:37:42.130Z,99604.09
2022-08-03T15:39:14.595Z,99605.59
2022-08-03T15:40:46.932Z,99606.28
2022-08-03T15:42:19.172Z,99601.94
2022-08-03T15:43:53.825Z,99595.25
2022-08-03T15:45:26.060Z,99603.13
2022-08-03T15:47:07.514Z,99598.31
2022-08-03T15:48:43.154Z,99596.44
2022-08-03T15:50:15.312Z,99596.44
2022-08-03T15:51:48.417Z,99596.94
2022-08-03T15:53:23.559Z,99593.75
2022-08-03T15:54:55.933Z,99597.28
2022-08-03T15:56:28.157Z,99596.13
2022-08-03T15:59:04.410Z,99591.28
2022-08-03T15:59:52.732Z,99595.28
2022-08-03T16:01:25.790Z,99597.09
2022-08-03T16:02:57.931Z,99590.59
2022-08-03T16:04:30.366Z,99592.94
2022-08-03T16:06:03.993Z,99591.28
2022-08-03T16:07:58.566Z,99600.63
2022-08-03T16:09:43.200Z,99589.28
2022-08-03T16:11:16.571Z,99594.13
2022-08-03T16:12:49.132Z,99592.94
2022-08-03T16:14:34.730Z,99594.47
2022-08-03T16:16:10.301Z,99598.78
2022-08-03T16:17:47.488Z,99590.56
2022-08-03T16:19:19.955Z,99602.41
2022-08-03T16:20:52.383Z,99600.56
2022-08-03T16:22:25.092Z,99606.72
2022-08-03T16:23:58.355Z,99608.53
2022-08-03T16:25:30.702Z,99603.16
2022-08-03T16:27:03.170Z,99613.00
2022-08-03T16:28:38.532Z,99612.13
2022-08-03T16:30:12.606Z,99612.91
2022-08-03T16:31:50.869Z,99611.34
2022-08-03T16:33:23.890Z,99616.31
2022-08-03T16:34:56.047Z,99619.75
2022-08-03T16:36:28.461Z,99619.06
2022-08-03T16:38:10.408Z,99614.56
2022-08-03T16:39:44.053Z,99622.22
2022-08-03T16:41:16.532Z,99617.50
2022-08-03T16:42:48.932Z,99618.97
2022-08-03T16:44:21.346Z,99625.72
2022-08-03T16:45:53.814Z,99615.69
2022-08-03T16:47:26.207Z,99625.31
2022-08-03T16:48:58.767Z,99626.94
2022-08-03T16:50:30.909Z,99625.88
2022-08-03T16:52:03.549Z,99625.66
2022-08-03T16:54:05.377Z,99631.47
2022-08-03T16:55:43.509Z,99631.75
2022-08-03T16:57:56.560Z,99633.44
2022-08-03T16:59:15.994Z,99628.19
2022-08-03T17:00:48.343Z,99631.59
2022-08-03T17:02:26.420Z,99634.53
2022-08-03T17:04:03.328Z,99627.13
2022-08-03T17:05:47.070Z,99632.91
2022-08-03T17:07:22.043Z,99632.03
2022-08-03T17:08:55.390Z,99629.06
2022-08-03T17:10:28.018Z,99637.78
2022-08-03T17:12:00.639Z,99630.31
2022-08-03T17:13:39.129Z,99632.50
2022-08-03T17:15:12.241Z,99638.72
2022-08-03T17:16:52.802Z,99637.44
2022-08-03T17:18:30.217Z,99641.84
2022-08-03T17:20:09.696Z,99642.84
2022-08-03T17:21:55.730Z,99642.94
2022-08-03T17:23:40.932Z,99637.94
2022-08-03T17:25:22.096Z,99647.34
2022-08-03T17:28:41.690Z,99641.13
2022-08-03T17:29:12.873Z,99639.09
2022-08-03T17:31:03.692Z,99645.66
2022-08-03T17:32:57.471Z,99650.28
2022-08-03T17:34:30.515Z,99650.16
2022-08-03T17:36:03.220Z,99644.72
2022-08-03T17:37:58.217Z,99656.19
2022-08-03T17:39:55.573Z,99651.88
2022-08-03T17:41:23.956Z,99651.28
2022-08-03T17:42:57.722Z,99655.75
2022-08-03T17:44:38.713Z,99658.38
2022-08-03T17:46:16.854Z,99662.13
2022-08-03T17:49:44.340Z,99653.94
2022-08-03T17:53:07.414Z,99655.53
2022-08-03T17:55:56.878Z,99664.44
2022-08-03T17:57:22.497Z,99656.28
2022-08-03T17:59:10.877Z,99655.81
2022-08-03T18:01:03.101Z,99657.59
2022-08-03T18:03:21.155Z,99663.41
2022-08-03T18:05:16.685Z,99665.28
2022-08-03T18:06:56.237Z,99667.88
2022-08-03T18:08:30.417Z,99668.06
2022-08-03T18:10:11.515Z,99676.09
2022-08-03T18:11:46.706Z,99671.28
2022-08-03T18:13:25.249Z,99681.41
2022-08-03T18:15:07.820Z,99686.13
2022-08-03T18:17:00.151Z,99694.44
2022-08-03T18:18:36.414Z,99693.28
2022-08-03T18:20:32.712Z,99692.31
2022-08-03T18:22:04.437Z,99690.53
2022-08-03T18:23:38.686Z,99703.78
2022-08-03T18:25:10.997Z,99696.00
2022-08-03T18:26:48.537Z,99703.97
2022-08-03T18:28:23.273Z,99701.56
2022-08-03T18:29:56.394Z,99700.47
2022-08-03T18:32:00.493Z,99699.47
2022-08-03T18:34:16.481Z,99708.00
2022-08-03T18:35:20.473Z,99711.94
2022-08-03T18:36:57.885Z,99716.75
2022-08-03T18:38:31.113Z,99704.94
2022-08-03T18:40:04.726Z,99711.44
2022-08-03T18:41:42.097Z,99711.78
2022-08-03T18:43:21.407Z,99717.53
2022-08-03T18:45:54.987Z,99718.00
2022-08-03T18:47:53.157Z,99719.56
2022-08-03T18:49:47.011Z,99725.53
2022-08-03T18:51:28.797Z,99727.75
2022-08-03T18:54:03.609Z,99728.31
2022-08-03T18:55:33.422Z,99727.22
2022-08-03T18:57:09.154Z,99735.59
2022-08-03T18:59:09.928Z,99735.31
2022-08-03T19:01:58.558Z,99734.78
2022-08-03T19:03:20.294Z,99731.00
2022-08-03T19:04:54.705Z,99737.72
2022-08-03T19:06:31.726Z,99732.97
2022-08-03T19:08:20.833Z,99742.06
2022-08-03T19:10:06.975Z,99746.84
2022-08-03T19:12:14.333Z,99740.19
2022-08-03T19:13:50.173Z,99742.25
2022-08-03T19:15:36.675Z,99742.59
2022-08-03T19:17:14.690Z,99737.66